createdAt,value
2023-04-16T00:00:14.299Z,945.2
2023-04-16T00:01:16.067Z,945.2
2023-04-16T00:02:18.284Z,945.2
2023-04-16T00:03:21.323Z,945.2
2023-04-16T00:04:23.827Z,945.1
2023-04-16T00:05:25.917Z,945.2
2023-04-16T00:06:27.778Z,945.2
2023-04-16T00:07:29.619Z,945.1
2023-04-16T00:08:31.690Z,945.1
2023-04-16T00:09:33.537Z,945.1
2023-04-16T00:10:35.467Z,945.2
2023-04-16T00:11:37.431Z,945.1
2023-04-16T00:12:39.269Z,945.2
2023-04-16T00:13:41.128Z,945.1
2023-04-16T00:14:42.981Z,945.1
2023-04-16T00:15:44.818Z,945.2
2023-04-16T00:16:46.821Z,945.1
2023-04-16T00:17:48.964Z,945.2
2023-04-16T00:18:50.880Z,945.1
2023-04-16T00:19:52.756Z,945.1
2023-04-16T00:20:54.694Z,945.1
2023-04-16T00:21:56.636Z,945.1
2023-04-16T00:22:58.496Z,945.1
2023-04-16T00:24:00.348Z,945.1
2023-04-16T00:25:02.230Z,945.1
2023-04-16T00:26:04.241Z,945.1
2023-04-16T00:27:06.306Z,945.1
2023-04-16T00:28:11.254Z,945.2
2023-04-16T00:29:13.078Z,945.1
2023-04-16T00:30:14.925Z,945.1
2023-04-16T00:31:16.988Z,945.1
2023-04-16T00:32:19.082Z,945.1
2023-04-16T00:33:20.990Z,945.1
2023-04-16T00:34:22.838Z,945.1
2023-04-16T00:35:24.836Z,945.1
2023-04-16T00:36:26.648Z,945.1
2023-04-16T00:37:28.594Z,945.1
2023-04-16T00:38:30.475Z,945.1
2023-04-16T00:39:32.301Z,945.1
2023-04-16T00:40:34.115Z,945.1
2023-04-16T00:41:35.993Z,945.1
2023-04-16T00:42:37.949Z,945.1
2023-04-16T00:43:39.771Z,945.1
2023-04-16T00:44:41.646Z,945.1
2023-04-16T00:45:43.587Z,945.1
2023-04-16T00:46:45.666Z,945.1
2023-04-16T00:47:47.714Z,945.1
2023-04-16T00:48:49.555Z,945.1
2023-04-16T00:49:51.409Z,945.1
2023-04-16T00:50:53.285Z,945.1
2023-04-16T00:51:55.107Z,945
2023-04-16T00:52:56.957Z,945
2023-04-16T00:53:58.911Z,945
2023-04-16T00:55:00.765Z,945.1
2023-04-16T00:56:02.641Z,945
2023-04-16T00:57:04.458Z,945
2023-04-16T00:58:06.313Z,945
2023-04-16T00:59:09.235Z,945
2023-04-16T01:00:11.661Z,945
2023-04-16T01:01:13.609Z,945
2023-04-16T01:02:15.811Z,945
2023-04-16T01:03:18.341Z,945
2023-04-16T01:04:21.066Z,945
2023-04-16T01:05:23.148Z,945
2023-04-16T01:06:25.029Z,945
2023-04-16T01:07:26.853Z,945
2023-04-16T01:08:28.706Z,945
2023-04-16T01:09:30.544Z,945
2023-04-16T01:10:32.403Z,945
2023-04-16T01:11:34.152Z,945
2023-04-16T01:12:35.996Z,945
2023-04-16T01:13:37.857Z,945
2023-04-16T01:14:39.704Z,945
2023-04-16T01:15:41.684Z,945
2023-04-16T01:16:43.609Z,945
2023-04-16T01:17:45.516Z,945
2023-04-16T01:18:47.520Z,945
2023-04-16T01:19:49.355Z,945
2023-04-16T01:20:51.205Z,945
2023-04-16T01:21:53.191Z,945
2023-04-16T01:22:55.014Z,945
2023-04-16T01:23:56.968Z,945
2023-04-16T01:24:58.812Z,945
2023-04-16T01:26:00.671Z,945
2023-04-16T01:27:02.509Z,945
2023-04-16T01:28:04.477Z,945
2023-04-16T01:29:06.784Z,945
2023-04-16T01:30:09.090Z,945
2023-04-16T01:31:10.898Z,945
2023-04-16T01:32:12.701Z,945
2023-04-16T01:33:14.635Z,944.9
2023-04-16T01:34:16.471Z,945
2023-04-16T01:35:18.445Z,944.9
2023-04-16T01:36:20.400Z,945
2023-04-16T01:37:22.263Z,944.9
2023-04-16T01:38:24.319Z,944.9
2023-04-16T01:39:26.147Z,944.9
2023-04-16T01:40:27.829Z,945
2023-04-16T01:41:29.749Z,945
2023-04-16T01:42:31.527Z,945
2023-04-16T01:43:33.351Z,945
2023-04-16T01:44:35.087Z,945
2023-04-16T01:45:36.946Z,945
2023-04-16T01:46:39.015Z,945
2023-04-16T01:47:41.104Z,944.9
2023-04-16T01:48:43.008Z,944.9
2023-04-16T01:49:44.863Z,944.9
2023-04-16T01:50:46.808Z,944.9
2023-04-16T01:51:48.651Z,944.9
2023-04-16T01:52:50.547Z,944.9
2023-04-16T01:53:52.362Z,944.9
2023-04-16T01:54:54.212Z,944.9
2023-04-16T01:55:56.051Z,944.9
2023-04-16T01:56:57.814Z,944.9
2023-04-16T01:57:59.453Z,944.9
2023-04-16T01:59:01.421Z,944.9
2023-04-16T02:00:03.570Z,944.9
2023-04-16T02:01:05.677Z,944.9
2023-04-16T02:02:07.947Z,944.9
2023-04-16T02:03:10.573Z,944.9
2023-04-16T02:04:12.833Z,944.9
2023-04-16T02:05:14.754Z,944.9
2023-04-16T02:06:16.609Z,944.9
2023-04-16T02:07:18.454Z,944.9
2023-04-16T02:08:20.519Z,944.9
2023-04-16T02:09:22.467Z,944.9
2023-04-16T02:10:24.419Z,944.9
2023-04-16T02:11:26.263Z,944.9
2023-04-16T02:12:28.111Z,944.9
2023-04-16T02:13:29.867Z,944.9
2023-04-16T02:14:31.705Z,944.9
2023-04-16T02:15:33.560Z,944.9
2023-04-16T02:16:35.738Z,944.9
2023-04-16T02:17:37.890Z,944.9
2023-04-16T02:18:39.719Z,944.9
2023-04-16T02:19:41.464Z,944.9
2023-04-16T02:20:43.316Z,944.9
2023-04-16T02:21:45.176Z,944.8
2023-04-16T02:22:47.122Z,944.8
2023-04-16T02:23:48.995Z,944.8
2023-04-16T02:24:50.934Z,944.8
2023-04-16T02:25:52.769Z,944.8
2023-04-16T02:26:54.627Z,944.8
2023-04-16T02:27:56.494Z,944.8
2023-04-16T02:28:58.426Z,944.8
2023-04-16T02:30:00.309Z,944.8
2023-04-16T02:31:02.231Z,944.8
2023-04-16T02:32:04.291Z,944.8
2023-04-16T02:33:06.601Z,944.8
2023-04-16T02:34:08.796Z,944.8
2023-04-16T02:35:10.650Z,944.8
2023-04-16T02:36:12.613Z,944.8
2023-04-16T02:37:14.562Z,944.8
2023-04-16T02:38:16.412Z,944.8
2023-04-16T02:39:18.407Z,944.8
2023-04-16T02:40:20.419Z,944.8
2023-04-16T02:41:22.267Z,944.8
2023-04-16T02:42:24.092Z,944.8
2023-04-16T02:43:25.980Z,944.8
2023-04-16T02:44:27.709Z,944.7
2023-04-16T02:45:29.569Z,944.7
2023-04-16T02:46:31.528Z,944.7
2023-04-16T02:47:33.617Z,944.7
2023-04-16T02:48:35.620Z,944.7
2023-04-16T02:49:37.379Z,944.7
2023-04-16T02:50:39.226Z,944.7
2023-04-16T02:51:41.084Z,944.7
2023-04-16T02:52:42.932Z,944.6
2023-04-16T02:53:44.885Z,944.7
2023-04-16T02:54:46.656Z,944.7
2023-04-16T02:55:48.482Z,944.7
2023-04-16T02:56:50.332Z,944.6
2023-04-16T02:57:52.183Z,944.7
2023-04-16T02:58:54.144Z,944.7
2023-04-16T02:59:55.884Z,944.7
2023-04-16T03:00:57.853Z,944.7
2023-04-16T03:01:59.919Z,944.7
2023-04-16T03:03:02.164Z,944.7
2023-04-16T03:04:04.097Z,944.7
2023-04-16T03:05:05.956Z,944.6
2023-04-16T03:06:07.802Z,944.7
2023-04-16T03:07:09.654Z,944.7
2023-04-16T03:08:11.500Z,944.7
2023-04-16T03:09:13.548Z,944.7
2023-04-16T03:10:15.438Z,944.7
2023-04-16T03:11:17.450Z,944.7
2023-04-16T03:12:19.303Z,944.7
2023-04-16T03:13:21.181Z,944.7
2023-04-16T03:14:23.108Z,944.7
2023-04-16T03:15:24.868Z,944.7
2023-04-16T03:16:26.706Z,944.7
2023-04-16T03:17:28.666Z,944.7
2023-04-16T03:18:30.715Z,944.7
2023-04-16T03:19:32.681Z,944.7
2023-04-16T03:20:34.527Z,944.7
2023-04-16T03:21:36.372Z,944.7
2023-04-16T03:22:38.315Z,944.7
2023-04-16T03:23:40.166Z,944.7
2023-04-16T03:24:42.022Z,944.7
2023-04-16T03:25:43.888Z,944.7
2023-04-16T03:26:45.926Z,944.6
2023-04-16T03:27:47.784Z,944.6
2023-04-16T03:28:49.734Z,944.7
2023-04-16T03:29:51.576Z,944.6
2023-04-16T03:30:53.549Z,944.6
2023-04-16T03:31:55.479Z,944.6
2023-04-16T03:32:57.460Z,944.7
2023-04-16T03:33:59.300Z,944.7
2023-04-16T03:35:01.166Z,944.7
2023-04-16T03:36:03.021Z,944.7
2023-04-16T03:37:04.823Z,944.7
2023-04-16T03:38:06.495Z,944.6
2023-04-16T03:39:09.402Z,944.7
2023-04-16T03:40:11.542Z,944.6
2023-04-16T03:41:13.389Z,944.7
2023-04-16T03:42:15.317Z,944.7
2023-04-16T03:43:17.168Z,944.7
2023-04-16T03:44:19.010Z,944.7
2023-04-16T03:45:20.859Z,944.7
2023-04-16T03:46:22.933Z,944.7
2023-04-16T03:47:24.872Z,944.7
2023-04-16T03:48:26.817Z,944.7
2023-04-16T03:49:28.573Z,944.7
2023-04-16T03:50:30.625Z,944.7
2023-04-16T03:51:32.685Z,944.7
2023-04-16T03:52:34.535Z,944.7
2023-04-16T03:53:36.384Z,944.7
2023-04-16T03:54:38.349Z,944.8
2023-04-16T03:55:40.188Z,944.7
2023-04-16T03:56:42.053Z,944.7
2023-04-16T03:57:43.881Z,944.7
2023-04-16T03:58:45.662Z,944.7
2023-04-16T03:59:47.584Z,944.8
2023-04-16T04:00:49.439Z,944.8
2023-04-16T04:01:51.660Z,944.8
2023-04-16T04:02:54.500Z,944.8
2023-04-16T04:03:57.691Z,944.8
2023-04-16T04:05:00.206Z,944.8
2023-04-16T04:06:02.236Z,944.8
2023-04-16T04:07:04.115Z,944.8
2023-04-16T04:08:05.948Z,944.9
2023-04-16T04:09:08.416Z,944.9
2023-04-16T04:10:10.799Z,944.8
2023-04-16T04:11:12.653Z,944.9
2023-04-16T04:12:14.526Z,944.9
2023-04-16T04:13:16.452Z,944.9
2023-04-16T04:14:18.396Z,944.9
2023-04-16T04:15:20.248Z,944.9
2023-04-16T04:16:22.363Z,944.9
2023-04-16T04:17:24.488Z,944.9
2023-04-16T04:18:26.410Z,945
2023-04-16T04:19:28.261Z,944.9
2023-04-16T04:20:30.217Z,945
2023-04-16T04:21:32.004Z,945
2023-04-16T04:22:33.736Z,945
2023-04-16T04:23:35.665Z,945
2023-04-16T04:24:37.511Z,945
2023-04-16T04:25:39.310Z,945
2023-04-16T04:26:41.117Z,945
2023-04-16T04:27:42.982Z,945
2023-04-16T04:28:44.822Z,945
2023-04-16T04:29:46.864Z,945.1
2023-04-16T04:30:48.823Z,945.1
2023-04-16T04:31:50.812Z,945.1
2023-04-16T04:32:52.761Z,945.2
2023-04-16T04:33:54.661Z,945.1
2023-04-16T04:34:56.524Z,945.1
2023-04-16T04:35:58.376Z,945.1
2023-04-16T04:37:00.228Z,945.2
2023-04-16T04:38:03.237Z,945.1
2023-04-16T04:39:05.164Z,945.1
2023-04-16T04:40:07.024Z,945.2
2023-04-16T04:41:08.962Z,945.2
2023-04-16T04:42:10.797Z,945.2
2023-04-16T04:43:12.676Z,945.2
2023-04-16T04:44:14.505Z,945.2
2023-04-16T04:45:16.350Z,945.2
2023-04-16T04:46:18.474Z,945.2
2023-04-16T04:47:20.580Z,945.2
2023-04-16T04:48:22.520Z,945.2
2023-04-16T04:49:24.363Z,945.2
2023-04-16T04:50:26.232Z,945.3
2023-04-16T04:51:28.064Z,945.3
2023-04-16T04:52:29.816Z,945.3
2023-04-16T04:53:31.682Z,945.3
2023-04-16T04:54:33.516Z,945.2
2023-04-16T04:55:35.376Z,945.3
2023-04-16T04:56:37.112Z,945.2
2023-04-16T04:57:38.975Z,945.3
2023-04-16T04:58:40.949Z,945.2
2023-04-16T04:59:42.764Z,945.2
2023-04-16T05:00:44.851Z,945.2
2023-04-16T05:01:46.781Z,945.2
2023-04-16T05:02:49.137Z,945.2
2023-04-16T05:03:51.574Z,945.2
2023-04-16T05:04:53.592Z,945.2
2023-04-16T05:05:55.513Z,945.2
2023-04-16T05:06:57.356Z,945.2
2023-04-16T05:07:59.223Z,945.2
2023-04-16T05:09:01.055Z,945.2
2023-04-16T05:10:03.017Z,945.2
2023-04-16T05:11:04.864Z,945.2
2023-04-16T05:12:06.720Z,945.2
2023-04-16T05:13:08.676Z,945.2
2023-04-16T05:14:10.548Z,945.2
2023-04-16T05:15:12.489Z,945.2
2023-04-16T05:16:14.445Z,945.2
2023-04-16T05:17:16.485Z,945.1
2023-04-16T05:18:18.432Z,945.1
2023-04-16T05:19:20.376Z,945.1
2023-04-16T05:20:22.234Z,945.2
2023-04-16T05:21:24.087Z,945.1
2023-04-16T05:22:26.034Z,945.1
2023-04-16T05:23:27.879Z,945.2
2023-04-16T05:24:29.613Z,945.2
2023-04-16T05:25:31.488Z,945.2
2023-04-16T05:26:33.435Z,945.2
2023-04-16T05:27:35.389Z,945.2
2023-04-16T05:28:37.345Z,945.2
2023-04-16T05:29:39.266Z,945.2
2023-04-16T05:30:41.253Z,945.2
2023-04-16T05:31:43.089Z,945.1
2023-04-16T05:32:45.324Z,945.1
2023-04-16T05:33:47.313Z,945.1
2023-04-16T05:34:49.149Z,945.1
2023-04-16T05:35:51.113Z,945.1
2023-04-16T05:36:52.862Z,945.1
2023-04-16T05:37:54.601Z,945.1
2023-04-16T05:38:56.443Z,945.1
2023-04-16T05:39:58.305Z,945.1
2023-04-16T05:41:00.199Z,945.1
2023-04-16T05:42:01.893Z,945.1
2023-04-16T05:43:03.750Z,945.1
2023-04-16T05:44:05.594Z,945.1
2023-04-16T05:45:07.579Z,945.1
2023-04-16T05:46:09.516Z,945.2
2023-04-16T05:47:11.646Z,945.2
2023-04-16T05:48:13.503Z,945.2
2023-04-16T05:49:15.461Z,945.2
2023-04-16T05:50:17.409Z,945.2
2023-04-16T05:51:19.266Z,945.2
2023-04-16T05:52:21.114Z,945.2
2023-04-16T05:53:22.958Z,945.2
2023-04-16T05:54:24.921Z,945.2
2023-04-16T05:55:26.672Z,945.2
2023-04-16T05:56:28.520Z,945.2
2023-04-16T05:57:30.365Z,945.2
2023-04-16T05:58:32.208Z,945.2
2023-04-16T05:59:34.070Z,945.1
2023-04-16T06:00:36.048Z,945.1
2023-04-16T06:01:38.076Z,945.1
2023-04-16T06:02:40.438Z,945.1
2023-04-16T06:03:42.845Z,945.1
2023-04-16T06:04:44.853Z,945.1
2023-04-16T06:05:46.940Z,945.1
2023-04-16T06:06:48.751Z,945.1
2023-04-16T06:07:50.611Z,945.1
2023-04-16T06:08:52.558Z,945.1
2023-04-16T06:09:54.402Z,945.1
2023-04-16T06:10:56.254Z,945.1
2023-04-16T06:11:58.104Z,945
2023-04-16T06:12:59.940Z,945.1
2023-04-16T06:14:01.923Z,945
2023-04-16T06:15:03.766Z,945.1
2023-04-16T06:16:05.915Z,945.1
2023-04-16T06:17:07.876Z,945.1
2023-04-16T06:18:09.966Z,945.1
2023-04-16T06:19:12.442Z,945.1
2023-04-16T06:20:14.351Z,945.1
2023-04-16T06:21:16.305Z,945.1
2023-04-16T06:22:18.100Z,945.1
2023-04-16T06:23:19.896Z,945.1
2023-04-16T06:24:21.725Z,945.1
2023-04-16T06:25:23.594Z,945.1
2023-04-16T06:26:25.440Z,945.1
2023-04-16T06:27:27.291Z,945.1
2023-04-16T06:28:29.142Z,945.1
2023-04-16T06:29:42.160Z,945.1
2023-04-16T06:30:45.235Z,945.1
2023-04-16T06:31:47.363Z,945.1
2023-04-16T06:32:49.658Z,945.1
2023-04-16T06:33:51.698Z,945.1
2023-04-16T06:34:53.547Z,945.1
2023-04-16T06:35:55.398Z,945.1
2023-04-16T06:36:57.147Z,945
2023-04-16T06:37:59.111Z,945
2023-04-16T06:39:00.882Z,945.1
2023-04-16T06:40:02.720Z,945.1
2023-04-16T06:41:04.649Z,945.1
2023-04-16T06:42:06.609Z,945.1
2023-04-16T06:43:08.459Z,945.1
2023-04-16T06:44:10.461Z,945.1
2023-04-16T06:45:12.271Z,945.1
2023-04-16T06:46:14.351Z,945.1
2023-04-16T06:47:16.378Z,945.1
2023-04-16T06:48:18.530Z,945.1
2023-04-16T06:49:20.379Z,945.1
2023-04-16T06:50:22.124Z,945.1
2023-04-16T06:51:23.976Z,945.1
2023-04-16T06:52:25.825Z,945.1
2023-04-16T06:53:27.576Z,945.1
2023-04-16T06:54:29.525Z,945.1
2023-04-16T06:55:31.354Z,945.1
2023-04-16T06:56:33.218Z,945.1
2023-04-16T06:57:37.962Z,945.1
2023-04-16T06:58:39.794Z,945.1
2023-04-16T06:59:41.535Z,945.1
2023-04-16T07:00:43.631Z,945.1
2023-04-16T07:01:45.551Z,945.1
2023-04-16T07:02:47.793Z,945.1
2023-04-16T07:03:50.758Z,945
2023-04-16T07:04:53.036Z,945
2023-04-16T07:05:54.994Z,945
2023-04-16T07:06:56.738Z,945
2023-04-16T07:07:58.590Z,945
2023-04-16T07:09:00.554Z,945
2023-04-16T07:10:02.502Z,945
2023-04-16T07:11:04.444Z,945
2023-04-16T07:12:06.300Z,945
2023-04-16T07:13:08.156Z,945.1
2023-04-16T07:14:10.002Z,945.1
2023-04-16T07:15:11.823Z,945.1
2023-04-16T07:16:13.844Z,945.1
2023-04-16T07:17:15.864Z,945.1
2023-04-16T07:18:21.003Z,945.1
2023-04-16T07:19:22.855Z,945.1
2023-04-16T07:20:24.822Z,945.1
2023-04-16T07:21:26.734Z,945.1
2023-04-16T07:22:28.595Z,945.1
2023-04-16T07:23:30.438Z,945.1
2023-04-16T07:24:32.290Z,945.2
2023-04-16T07:25:34.145Z,945.2
2023-04-16T07:26:36.089Z,945.1
2023-04-16T07:27:38.041Z,945.1
2023-04-16T07:28:39.887Z,945.1
2023-04-16T07:29:41.743Z,945.1
2023-04-16T07:30:43.603Z,945.1
2023-04-16T07:31:45.663Z,945.2
2023-04-16T07:32:47.864Z,945.1
2023-04-16T07:33:49.882Z,945.1
2023-04-16T07:34:51.820Z,945.1
2023-04-16T07:35:53.668Z,945.2
2023-04-16T07:36:55.623Z,945.1
2023-04-16T07:37:57.567Z,945.1
2023-04-16T07:38:59.444Z,945.1
2023-04-16T07:40:01.392Z,945.1
2023-04-16T07:41:03.161Z,945.1
2023-04-16T07:42:04.962Z,945.1
2023-04-16T07:43:06.932Z,945.1
2023-04-16T07:44:08.768Z,945
2023-04-16T07:45:10.628Z,945.1
2023-04-16T07:46:12.644Z,945
2023-04-16T07:47:14.640Z,945
2023-04-16T07:48:16.691Z,945.1
2023-04-16T07:49:18.757Z,945.1
2023-04-16T07:50:20.702Z,945.1
2023-04-16T07:51:22.544Z,945.1
2023-04-16T07:52:24.515Z,945
2023-04-16T07:53:26.238Z,945.1
2023-04-16T07:54:29.531Z,945.1
2023-04-16T07:55:31.369Z,945.1
2023-04-16T07:56:33.228Z,945
2023-04-16T07:57:35.287Z,945.1
2023-04-16T07:58:37.159Z,945
2023-04-16T07:59:38.989Z,945
2023-04-16T08:00:40.942Z,945
2023-04-16T08:01:42.795Z,945
2023-04-16T08:02:45.556Z,945
2023-04-16T08:03:48.287Z,945
2023-04-16T08:04:51.065Z,945
2023-04-16T08:05:53.252Z,945
2023-04-16T08:06:55.129Z,945
2023-04-16T08:07:57.151Z,945
2023-04-16T08:08:59.116Z,945
2023-04-16T08:10:00.966Z,945
2023-04-16T08:11:02.813Z,944.9
2023-04-16T08:12:04.658Z,944.9
2023-04-16T08:13:06.632Z,944.9
2023-04-16T08:14:08.573Z,944.8
2023-04-16T08:15:10.524Z,944.8
2023-04-16T08:16:12.488Z,944.8
2023-04-16T08:17:14.330Z,944.8
2023-04-16T08:18:16.183Z,944.8
2023-04-16T08:19:18.103Z,944.8
2023-04-16T08:20:20.107Z,944.8
2023-04-16T08:21:21.930Z,944.8
2023-04-16T08:22:23.774Z,944.8
2023-04-16T08:23:25.637Z,944.8
2023-04-16T08:24:27.474Z,944.8
2023-04-16T08:25:29.434Z,944.8
2023-04-16T08:26:31.305Z,944.8
2023-04-16T08:27:33.127Z,944.8
2023-04-16T08:28:34.980Z,944.7
2023-04-16T08:29:36.928Z,944.7
2023-04-16T08:30:38.764Z,944.8
2023-04-16T08:31:40.887Z,944.8
2023-04-16T08:32:43.055Z,944.7
2023-04-16T08:33:44.959Z,944.8
2023-04-16T08:34:46.800Z,944.8
2023-04-16T08:35:48.588Z,944.7
2023-04-16T08:36:50.413Z,944.7
2023-04-16T08:37:52.259Z,944.7
2023-04-16T08:38:54.215Z,944.8
2023-04-16T08:39:56.058Z,944.7
2023-04-16T08:40:57.906Z,944.8
2023-04-16T08:41:59.660Z,944.7
2023-04-16T08:43:01.602Z,944.7
2023-04-16T08:44:03.354Z,944.7
2023-04-16T08:45:05.203Z,944.7
2023-04-16T08:46:07.276Z,944.7
2023-04-16T08:47:09.730Z,944.7
2023-04-16T08:48:11.662Z,944.7
2023-04-16T08:49:13.515Z,944.6
2023-04-16T08:50:15.477Z,944.6
2023-04-16T08:51:17.351Z,944.6
2023-04-16T08:52:19.199Z,944.6
2023-04-16T08:53:21.734Z,944.6
2023-04-16T08:54:25.331Z,944.6
2023-04-16T08:55:27.282Z,944.6
2023-04-16T08:56:29.133Z,944.6
2023-04-16T08:57:30.997Z,944.6
2023-04-16T08:58:32.827Z,944.6
2023-04-16T08:59:34.686Z,944.6
2023-04-16T09:00:36.641Z,944.6
2023-04-16T09:01:38.630Z,944.6
2023-04-16T09:02:41.577Z,944.6
2023-04-16T09:03:44.297Z,944.6
2023-04-16T09:04:46.756Z,944.6
2023-04-16T09:05:48.850Z,944.6
2023-04-16T09:06:50.736Z,944.5
2023-04-16T09:07:52.561Z,944.5
2023-04-16T09:08:54.406Z,944.5
2023-04-16T09:09:56.248Z,944.5
2023-04-16T09:10:58.097Z,944.4
2023-04-16T09:11:59.981Z,944.4
2023-04-16T09:13:01.918Z,944.4
2023-04-16T09:14:03.748Z,944.4
2023-04-16T09:15:05.497Z,944.4
2023-04-16T09:16:07.480Z,944.4
2023-04-16T09:17:09.402Z,944.4
2023-04-16T09:18:11.470Z,944.4
2023-04-16T09:19:13.320Z,944.4
2023-04-16T09:20:15.163Z,944.4
2023-04-16T09:21:17.117Z,944.4
2023-04-16T09:22:18.995Z,944.4
2023-04-16T09:23:20.914Z,944.4
2023-04-16T09:24:22.774Z,944.4
2023-04-16T09:25:24.518Z,944.4
2023-04-16T09:26:26.475Z,944.4
2023-04-16T09:27:28.294Z,944.4
2023-04-16T09:28:30.265Z,944.4
2023-04-16T09:29:32.116Z,944.4
2023-04-16T09:30:33.976Z,944.4
2023-04-16T09:31:35.942Z,944.4
2023-04-16T09:32:37.902Z,944.4
2023-04-16T09:33:39.727Z,944.4
2023-04-16T09:34:41.574Z,944.4
2023-04-16T09:35:43.433Z,944.4
2023-04-16T09:36:45.284Z,944.4
2023-04-16T09:37:47.150Z,944.4
2023-04-16T09:38:49.078Z,944.3
2023-04-16T09:39:50.934Z,944.4
2023-04-16T09:40:52.777Z,944.3
2023-04-16T09:41:54.749Z,944.3
2023-04-16T09:42:56.791Z,944.3
2023-04-16T09:43:58.645Z,944.3
2023-04-16T09:45:06.351Z,944.3
2023-04-16T09:46:09.279Z,944.3
2023-04-16T09:47:11.264Z,944.2
2023-04-16T09:48:13.091Z,944.2
2023-04-16T09:49:15.059Z,944.2
2023-04-16T09:50:19.273Z,944.2
2023-04-16T09:51:21.116Z,944.2
2023-04-16T09:52:22.959Z,944.2
2023-04-16T09:53:24.829Z,944.2
2023-04-16T09:54:26.658Z,944.2
2023-04-16T09:55:28.361Z,944.2
2023-04-16T09:56:30.266Z,944.2
2023-04-16T09:57:32.004Z,944.2
2023-04-16T09:58:33.953Z,944.1
2023-04-16T09:59:35.823Z,944.2
2023-04-16T10:00:44.104Z,944.1
2023-04-16T10:01:46.274Z,944.1
2023-04-16T10:02:51.239Z,944.1
2023-04-16T10:03:54.056Z,944.1
2023-04-16T10:04:56.491Z,944.1
2023-04-16T10:05:58.582Z,944.1
2023-04-16T10:07:00.339Z,944.1
2023-04-16T10:08:02.300Z,944.1
2023-04-16T10:09:04.264Z,944.1
2023-04-16T10:10:06.204Z,944.1
2023-04-16T10:11:07.848Z,944.1
2023-04-16T10:12:09.689Z,944.1
2023-04-16T10:13:11.643Z,944.1
2023-04-16T10:14:13.416Z,944.1
2023-04-16T10:15:15.240Z,944.1
2023-04-16T10:16:17.187Z,944
2023-04-16T10:17:19.044Z,944
2023-04-16T10:18:21.296Z,944
2023-04-16T10:19:23.254Z,944
2023-04-16T10:20:25.110Z,944
2023-04-16T10:21:26.945Z,944
2023-04-16T10:22:28.808Z,944
2023-04-16T10:23:30.653Z,943.9
2023-04-16T10:24:32.541Z,943.9
2023-04-16T10:25:34.561Z,943.9
2023-04-16T10:26:36.402Z,943.9
2023-04-16T10:27:38.295Z,943.9
2023-04-16T10:28:40.101Z,943.9
2023-04-16T10:29:41.963Z,943.9
2023-04-16T10:30:43.926Z,943.9
2023-04-16T10:31:45.753Z,943.9
2023-04-16T10:32:47.741Z,943.9
2023-04-16T10:33:49.564Z,943.9
2023-04-16T10:34:51.416Z,943.9
2023-04-16T10:36:08.407Z,943.9
2023-04-16T10:37:10.267Z,943.9
2023-04-16T10:38:12.223Z,943.8
2023-04-16T10:39:17.774Z,943.9
2023-04-16T10:40:19.836Z,943.8
2023-04-16T10:41:21.661Z,943.8
2023-04-16T10:42:23.610Z,943.8
2023-04-16T10:43:25.566Z,943.8
2023-04-16T10:44:27.304Z,943.8
2023-04-16T10:45:29.059Z,943.9
2023-04-16T10:46:31.073Z,943.8
2023-04-16T10:47:33.297Z,943.8
2023-04-16T10:48:51.062Z,943.8
2023-04-16T10:49:52.937Z,943.8
2023-04-16T10:50:54.789Z,943.8
2023-04-16T10:51:56.667Z,943.8
2023-04-16T10:52:58.490Z,943.8
2023-04-16T10:54:00.442Z,943.8
2023-04-16T10:55:02.408Z,943.8
2023-04-16T10:56:04.274Z,943.8
2023-04-16T10:57:06.208Z,943.8
2023-04-16T10:58:08.162Z,943.8
2023-04-16T10:59:10.883Z,943.7
2023-04-16T11:00:13.397Z,943.8
2023-04-16T11:01:15.359Z,943.8
2023-04-16T11:02:17.823Z,943.8
2023-04-16T11:03:21.255Z,943.8
2023-04-16T11:04:23.963Z,943.8
2023-04-16T11:05:26.117Z,943.7
2023-04-16T11:06:28.078Z,943.7
2023-04-16T11:07:30.045Z,943.7
2023-04-16T11:08:32.402Z,943.6
2023-04-16T11:09:34.336Z,943.7
2023-04-16T11:10:36.295Z,943.7
2023-04-16T11:11:38.170Z,943.6
2023-04-16T11:12:39.987Z,943.6
2023-04-16T11:13:43.891Z,943.6
2023-04-16T11:14:45.741Z,943.6
2023-04-16T11:15:47.603Z,943.6
2023-04-16T11:16:49.647Z,943.6
2023-04-16T11:17:52.034Z,943.6
2023-04-16T11:18:57.265Z,943.6
2023-04-16T11:19:59.192Z,943.6
2023-04-16T11:21:01.158Z,943.6
2023-04-16T11:22:03.118Z,943.6
2023-04-16T11:23:04.946Z,943.6
2023-04-16T11:24:06.790Z,943.6
2023-04-16T11:25:08.749Z,943.6
2023-04-16T11:26:10.487Z,943.6
2023-04-16T11:27:12.375Z,943.5
2023-04-16T11:28:14.288Z,943.5
2023-04-16T11:29:16.169Z,943.5
2023-04-16T11:30:18.003Z,943.5
2023-04-16T11:31:20.116Z,943.5
2023-04-16T11:32:22.241Z,943.5
2023-04-16T11:33:24.267Z,943.4
2023-04-16T11:34:26.105Z,943.4
2023-04-16T11:35:28.070Z,943.4
2023-04-16T11:36:30.020Z,943.4
2023-04-16T11:37:31.864Z,943.4
2023-04-16T11:38:33.718Z,943.4
2023-04-16T11:39:35.569Z,943.4
2023-04-16T11:40:37.500Z,943.3
2023-04-16T11:41:39.372Z,943.3
2023-04-16T11:42:41.594Z,943.3
2023-04-16T11:43:43.577Z,943.3
2023-04-16T11:44:45.441Z,943.3
2023-04-16T11:45:47.391Z,943.3
2023-04-16T11:46:49.652Z,943.3
2023-04-16T11:47:52.111Z,943.2
2023-04-16T11:48:54.270Z,943.2
2023-04-16T11:49:56.093Z,943.2
2023-04-16T11:50:58.008Z,943.2
2023-04-16T11:52:00.031Z,943.2
2023-04-16T11:53:01.903Z,943.2
2023-04-16T11:54:03.717Z,943.1
2023-04-16T11:55:05.464Z,943.1
2023-04-16T11:56:07.312Z,943.2
2023-04-16T11:57:09.252Z,943.1
2023-04-16T11:58:11.156Z,943.1
2023-04-16T11:59:14.637Z,943.1
2023-04-16T12:00:17.205Z,943.1
2023-04-16T12:01:19.023Z,943.1
2023-04-16T12:02:21.301Z,943.1
2023-04-16T12:03:24.078Z,943
2023-04-16T12:04:26.809Z,943
2023-04-16T12:05:28.912Z,943
2023-04-16T12:06:30.729Z,943
2023-04-16T12:07:32.580Z,943
2023-04-16T12:08:34.441Z,942.9
2023-04-16T12:09:41.234Z,943
2023-04-16T12:10:43.049Z,942.9
2023-04-16T12:11:44.902Z,942.9
2023-04-16T12:12:46.857Z,942.9
2023-04-16T12:13:48.728Z,942.9
2023-04-16T12:14:50.549Z,942.9
2023-04-16T12:15:52.396Z,942.9
2023-04-16T12:16:54.413Z,942.9
2023-04-16T12:17:56.526Z,942.8
2023-04-16T12:18:58.357Z,942.8
2023-04-16T12:20:00.226Z,942.8
2023-04-16T12:21:02.161Z,942.8
2023-04-16T12:22:04.019Z,942.7
2023-04-16T12:23:05.859Z,942.8
2023-04-16T12:24:07.721Z,942.8
2023-04-16T12:25:09.662Z,942.8
2023-04-16T12:26:11.511Z,942.7
2023-04-16T12:27:13.292Z,942.8
2023-04-16T12:28:15.095Z,942.7
2023-04-16T12:29:16.992Z,942.7
2023-04-16T12:30:18.919Z,942.7
2023-04-16T12:31:21.135Z,942.7
2023-04-16T12:32:23.286Z,942.7
2023-04-16T12:33:25.293Z,942.7
2023-04-16T12:34:49.986Z,942.7
2023-04-16T12:35:51.922Z,942.6
2023-04-16T12:36:53.778Z,942.7
2023-04-16T12:37:55.735Z,942.6
2023-04-16T12:38:57.684Z,942.7
2023-04-16T12:39:59.631Z,942.7
2023-04-16T12:41:01.490Z,942.6
2023-04-16T12:42:03.950Z,942.6
2023-04-16T12:43:05.895Z,942.7
2023-04-16T12:44:07.618Z,942.7
2023-04-16T12:45:09.493Z,942.6
2023-04-16T12:46:11.621Z,942.7
2023-04-16T12:47:13.609Z,942.6
2023-04-16T12:48:15.575Z,942.6
2023-04-16T12:49:17.337Z,942.6
2023-04-16T12:50:19.059Z,942.6
2023-04-16T12:51:20.909Z,942.6
2023-04-16T12:52:24.186Z,942.6
2023-04-16T12:53:26.057Z,942.6
2023-04-16T12:54:27.888Z,942.6
2023-04-16T12:55:29.752Z,942.6
2023-04-16T12:56:31.695Z,942.5
2023-04-16T12:57:33.660Z,942.5
2023-04-16T12:58:35.604Z,942.5
2023-04-16T12:59:37.450Z,942.5
2023-04-16T13:00:39.324Z,942.5
2023-04-16T13:01:41.267Z,942.4
2023-04-16T13:02:43.653Z,942.4
2023-04-16T13:03:46.708Z,942.4
2023-04-16T13:04:49.519Z,942.4
2023-04-16T13:05:51.514Z,942.3
2023-04-16T13:06:53.371Z,942.4
2023-04-16T13:07:55.116Z,942.4
2023-04-16T13:08:56.986Z,942.3
2023-04-16T13:09:58.820Z,942.3
2023-04-16T13:11:00.640Z,942.3
2023-04-16T13:12:02.522Z,942.3
2023-04-16T13:13:04.270Z,942.3
2023-04-16T13:14:06.223Z,942.3
2023-04-16T13:15:07.963Z,942.3
2023-04-16T13:16:09.965Z,942.3
2023-04-16T13:17:12.068Z,942.3
2023-04-16T13:18:13.927Z,942.3
2023-04-16T13:19:15.780Z,942.3
2023-04-16T13:20:17.725Z,942.3
2023-04-16T13:21:19.585Z,942.3
2023-04-16T13:22:21.442Z,942.3
2023-04-16T13:23:23.277Z,942.3
2023-04-16T13:24:25.134Z,942.3
2023-04-16T13:25:27.034Z,942.3
2023-04-16T13:26:28.827Z,942.3